Time;durP1;ratioP1;P1;durP2;ratioP2;P2;SDS_P1;SDS_P2;PMS_P1;PMS_P2;Temp;Humidity;BMP_temperature;BMP_pressure;BME280_temperature;BME280_humidity;BME280_pressure;Samples;Min_cycle;Max_cycle;Signal;HPM_P1;HPM_P2
2023/09/09 00:01:38;;;;;;;;;;;;;;;;;;5019127;28;19972;-77
2023/09/09 00:04:04;;;;;;;;;;;;;;;;;;5037497;28;19976;-77
2023/09/09 00:06:29;;;;;;;;;;;;;;;;;;5017527;28;19929;-77
2023/09/09 00:08:54;;;;;;;;;;;;;;;;;;5050155;28;19929;-77
2023/09/09 00:11:20;;;;;;;;;;;;;;;;;;5032520;28;20339;-77
2023/09/09 00:13:45;;;;;;;;;;;;;;;;;;5047330;28;20477;-78
2023/09/09 00:16:11;;;;;;;;;;;;;;;;;;5014272;28;19944;-78
2023/09/09 00:18:36;;;;;;;;;;;;;;;;;;5034189;28;19928;-77
2023/09/09 00:21:01;;;;;;;;;;;;;;;;;;5016082;28;20392;-78
2023/09/09 00:23:27;;;;;;;;;;;;;;;;;;5014332;28;19923;-77
2023/09/09 00:25:52;;;;;;;;;;;;;;;;;;5045370;28;19925;-77
2023/09/09 00:28:17;;;;;;;;;;;;;;;;;;5013869;28;19957;-77
2023/09/09 00:30:43;;;;;;;;;;;;;;;;;;5033697;28;19917;-78
2023/09/09 00:33:08;;;;;;;;;;;;;;;;;;5030402;28;20447;-77
2023/09/09 00:35:33;;;;;;;;;;;;;;;;;;5033663;28;19921;-77
2023/09/09 00:37:59;;;;;;;;;;;;;;;;;;5017237;28;19916;-77
2023/09/09 00:40:24;;;;;;;;;;;;;;;;;;5029704;28;19971;-79
2023/09/09 00:42:49;;;;;;;;;;;;;;;;;;5035708;28;19948;-78
2023/09/09 00:45:15;;;;;;;;;;;;;;;;;;5014672;28;20369;-78
2023/09/09 00:47:40;;;;;;;;;;;;;;;;;;5015038;28;19921;-78
2023/09/09 00:50:09;;;;;;;;;;;;;;;;;;5043929;28;19947;-76
2023/09/09 00:52:36;;;;;;;;;;;;;;;;;;5004131;28;19947;-77
2023/09/09 00:55:02;;;;;;;;;;;;;;;;;;5030460;28;19922;-77
2023/09/09 00:57:27;;;;;;;;;;;;;;;;;;5046318;28;19924;-77
2023/09/09 00:59:53;;;;;;;;;;;;;;;;;;5016607;28;20860;-77
2023/09/09 01:02:18;;;;;;;;;;;;;;;;;;5015747;28;19925;-77
2023/09/09 01:04:43;;;;;;;;;;;;;;;;;;5012943;28;19932;-78
2023/09/09 01:07:08;;;;;;;;;;;;;;;;;;5045614;28;20451;-78
2023/09/09 01:09:34;;;;;;;;;;;;;;;;;;5048384;28;19982;-78
2023/09/09 01:11:59;;;;;;;;;;;;;;;;;;5030658;28;20612;-78
2023/09/09 01:14:24;;;;;;;;;;;;;;;;;;5014816;28;19975;-78
2023/09/09 01:16:51;;;;;;;;;;;;;;;;;;5041221;28;19922;-77
2023/09/09 01:19:17;;;;;;;;;;;;;;;;;;5045058;28;19923;-77
2023/09/09 01:21:42;;;;;;;;;;;;;;;;;;5016215;28;20009;-77
2023/09/09 01:24:08;;;;;;;;;;;;;;;;;;5048114;28;20584;-77
2023/09/09 01:26:33;;;;;;;;;;;;;;;;;;5018185;28;19929;-78
2023/09/09 01:28:58;;;;;;;;;;;;;;;;;;5016491;28;20392;-77
2023/09/09 01:31:23;;;;;;;;;;;;;;;;;;5045207;28;20457;-78
2023/09/09 01:33:50;;;;;;;;;;;;;;;;;;5029425;28;20839;-77
2023/09/09 01:36:16;;;;;;;;;;;;;;;;;;5047120;28;20451;-78
2023/09/09 01:38:41;;;;;;;;;;;;;;;;;;5028337;28;19953;-77
2023/09/09 01:41:06;;;;;;;;;;;;;;;;;;5042583;28;20653;-78
2023/09/09 01:43:31;;;;;;;;;;;;;;;;;;5043311;28;20013;-77
2023/09/09 01:45:56;;;;;;;;;;;;;;;;;;5043618;28;19926;-77
2023/09/09 01:48:22;;;;;;;;;;;;;;;;;;5014940;28;20270;-78
2023/09/09 01:50:48;;;;;;;;;;;;;;;;;;5046317;28;19921;-78
2023/09/09 01:53:13;;;;;;;;;;;;;;;;;;5044398;28;20421;-77
2023/09/09 01:55:38;;;;;;;;;;;;;;;;;;5043352;28;20344;-78
2023/09/09 01:58:03;;;;;;;;;;;;;;;;;;5045024;28;19932;-78
2023/09/09 02:00:30;;;;;;;;;;;;;;;;;;5044787;28;20012;-77
2023/09/09 02:02:55;;;;;;;;;;;;;;;;;;5011973;28;20336;-78
2023/09/09 02:05:20;;;;;;;;;;;;;;;;;;5044688;28;20017;-77
2023/09/09 02:07:46;;;;;;;;;;;;;;;;;;5032969;28;19928;-77
2023/09/09 02:10:11;;;;;;;;;;;;;;;;;;5042805;28;20298;-77
2023/09/09 02:12:36;;;;;;;;;;;;;;;;;;5027852;28;20471;-77
2023/09/09 02:15:01;;;;;;;;;;;;;;;;;;5032213;28;19922;-77
2023/09/09 02:17:27;;;;;;;;;;;;;;;;;;5034617;28;20000;-77
2023/09/09 02:19:55;;;;;;;;;;;;;;;;;;5009428;28;19937;-77
2023/09/09 02:22:21;;;;;;;;;;;;;;;;;;5009589;28;19921;-79
2023/09/09 02:24:46;;;;;;;;;;;;;;;;;;4990963;28;19952;-77
2023/09/09 02:27:11;;;;;;;;;;;;;;;;;;4993534;28;20313;-78
2023/09/09 02:29:36;;;;;;;;;;;;;;;;;;5008769;28;20448;-77
2023/09/09 02:32:02;;;;;;;;;;;;;;;;;;4996579;28;19921;-78
2023/09/09 02:34:27;;;;;;;;;;;;;;;;;;4990496;28;20649;-77
2023/09/09 02:37:22;;;;;;;;;;;;;;;;;;5010467;28;20360;-78
2023/09/09 02:39:47;;;;;;;;;;;;;;;;;;4986099;28;19961;-77
2023/09/09 02:42:14;;;;;;;;;;;;;;;;;;4983580;28;20393;-78
2023/09/09 02:44:39;;;;;;;;;;;;;;;;;;5008408;28;19921;-77
2023/09/09 02:47:05;;;;;;;;;;;;;;;;;;5023594;28;20408;-77
2023/09/09 02:49:30;;;;;;;;;;;;;;;;;;4994077;28;19928;-77
2023/09/09 02:51:56;;;;;;;;;;;;;;;;;;5009670;28;20019;-78
2023/09/09 02:54:21;;;;;;;;;;;;;;;;;;5026577;28;20365;-77
2023/09/09 02:56:46;;;;;;;;;;;;;;;;;;4995300;28;19943;-78
2023/09/09 02:59:11;;;;;;;;;;;;;;;;;;4994660;28;20028;-78
2023/09/09 03:01:37;;;;;;;;;;;;;;;;;;5013294;28;19921;-78
2023/09/09 03:04:02;;;;;;;;;;;;;;;;;;5014108;28;19924;-78
2023/09/09 03:06:27;;;;;;;;;;;;;;;;;;4999688;28;20353;-78
2023/09/09 03:08:53;;;;;;;;;;;;;;;;;;5014042;28;20533;-78
2023/09/09 03:11:18;;;;;;;;;;;;;;;;;;4992320;28;19921;-78
2023/09/09 03:13:43;;;;;;;;;;;;;;;;;;4997971;28;20015;-77
2023/09/09 03:16:08;;;;;;;;;;;;;;;;;;5023004;28;19972;-77
2023/09/09 03:18:34;;;;;;;;;;;;;;;;;;5017774;28;19922;-77
2023/09/09 03:20:59;;;;;;;;;;;;;;;;;;4997115;28;19917;-77
2023/09/09 03:23:24;;;;;;;;;;;;;;;;;;5014044;28;19960;-76
2023/09/09 03:25:49;;;;;;;;;;;;;;;;;;5027527;28;19921;-78
2023/09/09 03:28:15;;;;;;;;;;;;;;;;;;5015230;28;19918;-77
2023/09/09 03:30:54;;;;;;;;;;;;;;;;;;5011905;28;20008;-77
2023/09/09 03:33:19;;;;;;;;;;;;;;;;;;5014416;28;19922;-77
2023/09/09 03:35:44;;;;;;;;;;;;;;;;;;4996502;28;19976;-78
2023/09/09 03:38:09;;;;;;;;;;;;;;;;;;5012017;28;19959;-77
2023/09/09 03:40:35;;;;;;;;;;;;;;;;;;4996819;28;19921;-77
2023/09/09 03:43:00;;;;;;;;;;;;;;;;;;4998390;28;19917;-76
2023/09/09 03:45:25;;;;;;;;;;;;;;;;;;4996235;28;19953;-77
2023/09/09 03:47:50;;;;;;;;;;;;;;;;;;4995143;28;19926;-76
2023/09/09 03:50:16;;;;;;;;;;;;;;;;;;5001554;28;19972;-77
2023/09/09 03:52:41;;;;;;;;;;;;;;;;;;4997646;28;20017;-76
2023/09/09 03:55:06;;;;;;;;;;;;;;;;;;5000328;28;19922;-77
2023/09/09 03:57:31;;;;;;;;;;;;;;;;;;4992972;28;19964;-76
2023/09/09 03:59:57;;;;;;;;;;;;;;;;;;4996791;28;19924;-76
2023/09/09 04:02:22;;;;;;;;;;;;;;;;;;4995920;28;20310;-78
2023/09/09 04:04:48;;;;;;;;;;;;;;;;;;5012304;28;20416;-77
2023/09/09 04:07:13;;;;;;;;;;;;;;;;;;4998195;28;19948;-78
2023/09/09 04:09:40;;;;;;;;;;;;;;;;;;4999492;28;19937;-76
2023/09/09 04:12:06;;;;;;;;;;;;;;;;;;4974000;28;19926;-77
2023/09/09 04:14:31;;;;;;;;;;;;;;;;;;4976835;28;20346;-77
2023/09/09 04:16:57;;;;;;;;;;;;;;;;;;4992719;28;20025;-77
2023/09/09 04:19:22;;;;;;;;;;;;;;;;;;4992767;28;19918;-78
2023/09/09 04:21:49;;;;;;;;;;;;;;;;;;4974537;28;19989;-77
2023/09/09 04:24:14;;;;;;;;;;;;;;;;;;4972581;28;20370;-79
2023/09/09 04:26:40;;;;;;;;;;;;;;;;;;4994664;28;19953;-78
2023/09/09 04:29:05;;;;;;;;;;;;;;;;;;4993470;28;20447;-78
2023/09/09 04:31:30;;;;;;;;;;;;;;;;;;4991439;28;19928;-77
2023/09/09 04:33:55;;;;;;;;;;;;;;;;;;4981695;28;20072;-77
2023/09/09 04:36:21;;;;;;;;;;;;;;;;;;4974363;28;19924;-77
2023/09/09 04:38:46;;;;;;;;;;;;;;;;;;4991346;28;19973;-77
2023/09/09 04:41:11;;;;;;;;;;;;;;;;;;4998347;28;20016;-77
2023/09/09 04:43:36;;;;;;;;;;;;;;;;;;4984782;28;19942;-77
2023/09/09 04:46:02;;;;;;;;;;;;;;;;;;4974273;28;19968;-78
2023/09/09 04:48:27;;;;;;;;;;;;;;;;;;4974940;28;19976;-77
2023/09/09 04:50:52;;;;;;;;;;;;;;;;;;4977089;28;21358;-77
2023/09/09 04:53:17;;;;;;;;;;;;;;;;;;4992751;28;19926;-77
2023/09/09 04:55:43;;;;;;;;;;;;;;;;;;4991339;28;19932;-77
2023/09/09 04:58:10;;;;;;;;;;;;;;;;;;4973181;28;19973;-78
2023/09/09 05:00:36;;;;;;;;;;;;;;;;;;4978186;28;19922;-77
2023/09/09 05:03:01;;;;;;;;;;;;;;;;;;4981937;28;19925;-77
2023/09/09 05:05:26;;;;;;;;;;;;;;;;;;4992176;28;20316;-78
2023/09/09 05:07:52;;;;;;;;;;;;;;;;;;4993230;28;20004;-80
2023/09/09 05:10:18;;;;;;;;;;;;;;;;;;5016837;28;19929;-77
2023/09/09 05:12:44;;;;;;;;;;;;;;;;;;5013318;28;19925;-77
2023/09/09 05:15:10;;;;;;;;;;;;;;;;;;4995235;28;20444;-78
2023/09/09 05:17:38;;;;;;;;;;;;;;;;;;5010669;28;19929;-78
2023/09/09 05:20:04;;;;;;;;;;;;;;;;;;4995264;28;19980;-79
2023/09/09 05:22:29;;;;;;;;;;;;;;;;;;4997010;28;19925;-78
2023/09/09 05:24:54;;;;;;;;;;;;;;;;;;4995016;28;19928;-77
2023/09/09 05:27:20;;;;;;;;;;;;;;;;;;5024867;28;19922;-78
2023/09/09 05:29:46;;;;;;;;;;;;;;;;;;4993659;28;20202;-77
2023/09/09 05:32:11;;;;;;;;;;;;;;;;;;5021179;28;20003;-78
2023/09/09 05:34:36;;;;;;;;;;;;;;;;;;4992488;28;20024;-78
2023/09/09 05:37:02;;;;;;;;;;;;;;;;;;5016006;28;19917;-77
2023/09/09 05:39:27;;;;;;;;;;;;;;;;;;4996787;28;19921;-78
2023/09/09 05:41:52;;;;;;;;;;;;;;;;;;4994947;28;20747;-77
2023/09/09 05:44:17;;;;;;;;;;;;;;;;;;4996780;28;20294;-77
2023/09/09 05:46:43;;;;;;;;;;;;;;;;;;4996089;28;20091;-76
2023/09/09 05:49:08;;;;;;;;;;;;;;;;;;5011475;28;19929;-78
2023/09/09 05:51:33;;;;;;;;;;;;;;;;;;4996358;28;19927;-78
2023/09/09 05:54:00;;;;;;;;;;;;;;;;;;4995404;28;20361;-77
2023/09/09 05:56:25;;;;;;;;;;;;;;;;;;4998348;28;20313;-77
2023/09/09 05:58:51;;;;;;;;;;;;;;;;;;4994213;28;19922;-77
2023/09/09 06:01:16;;;;;;;;;;;;;;;;;;5009164;28;19953;-78
2023/09/09 06:03:42;;;;;;;;;;;;;;;;;;4997121;28;19922;-77
2023/09/09 06:06:07;;;;;;;;;;;;;;;;;;4992290;28;19933;-78
2023/09/09 06:08:32;;;;;;;;;;;;;;;;;;4995298;28;20570;-79
2023/09/09 06:10:57;;;;;;;;;;;;;;;;;;5014270;28;20025;-77
2023/09/09 06:13:23;;;;;;;;;;;;;;;;;;5017745;28;21382;-76
2023/09/09 06:15:48;;;;;;;;;;;;;;;;;;5031369;28;19928;-77
2023/09/09 06:18:13;;;;;;;;;;;;;;;;;;5012637;28;20006;-77
2023/09/09 06:20:39;;;;;;;;;;;;;;;;;;5000049;28;19917;-77
2023/09/09 06:23:04;;;;;;;;;;;;;;;;;;5018860;28;19925;-79
2023/09/09 06:25:29;;;;;;;;;;;;;;;;;;5033665;28;19924;-78
2023/09/09 06:27:54;;;;;;;;;;;;;;;;;;5045548;28;19928;-78
2023/09/09 06:30:19;;;;;;;;;;;;;;;;;;5024495;28;20769;-77
2023/09/09 06:32:45;;;;;;;;;;;;;;;;;;4999165;28;19921;-78
2023/09/09 06:35:10;;;;;;;;;;;;;;;;;;5018550;28;19924;-77
2023/09/09 06:37:35;;;;;;;;;;;;;;;;;;5054030;28;19982;-78
2023/09/09 06:40:01;;;;;;;;;;;;;;;;;;5050121;28;19921;-79
2023/09/09 06:42:26;;;;;;;;;;;;;;;;;;5050294;28;19923;-77
2023/09/09 06:44:51;;;;;;;;;;;;;;;;;;5050842;28;20019;-76
2023/09/09 06:47:16;;;;;;;;;;;;;;;;;;5051769;28;20122;-77
2023/09/09 06:49:42;;;;;;;;;;;;;;;;;;5032357;28;19924;-77
2023/09/09 06:52:07;;;;;;;;;;;;;;;;;;5051043;28;19929;-77
2023/09/09 06:54:32;;;;;;;;;;;;;;;;;;5033531;28;20475;-78
2023/09/09 06:56:57;;;;;;;;;;;;;;;;;;5022039;28;19924;-79
2023/09/09 06:59:23;;;;;;;;;;;;;;;;;;5050845;28;19925;-78
2023/09/09 07:01:49;;;;;;;;;;;;;;;;;;5050516;28;20005;-78
2023/09/09 07:04:14;;;;;;;;;;;;;;;;;;5054239;28;20487;-77
2023/09/09 07:06:40;;;;;;;;;;;;;;;;;;5036881;28;19928;-77
2023/09/09 07:09:06;;;;;;;;;;;;;;;;;;5016291;28;19929;-78
2023/09/09 07:11:31;;;;;;;;;;;;;;;;;;5041276;28;19921;-78
2023/09/09 07:13:56;;;;;;;;;;;;;;;;;;5050176;28;19992;-78
2023/09/09 07:16:22;;;;;;;;;;;;;;;;;;5050098;28;20296;-79
2023/09/09 07:18:48;;;;;;;;;;;;;;;;;;5049320;28;19924;-77
2023/09/09 07:21:13;;;;;;;;;;;;;;;;;;5016624;28;19921;-77
2023/09/09 07:23:38;;;;;;;;;;;;;;;;;;5051534;28;19928;-77
2023/09/09 07:26:03;;;;;;;;;;;;;;;;;;5020567;28;19924;-79
2023/09/09 07:28:32;;;;;;;;;;;;;;;;;;5049427;28;19921;-77
2023/09/09 07:31:01;;;;;;;;;;;;;;;;;;5053134;28;20066;-78
2023/09/09 07:33:26;;;;;;;;;;;;;;;;;;5019336;28;19925;-77
2023/09/09 07:35:52;;;;;;;;;;;;;;;;;;5050023;28;19917;-79
2023/09/09 07:38:17;;;;;;;;;;;;;;;;;;5052000;28;19924;-78
2023/09/09 07:40:43;;;;;;;;;;;;;;;;;;5051368;28;20290;-78
2023/09/09 07:43:08;;;;;;;;;;;;;;;;;;5017361;28;19940;-79
2023/09/09 07:45:33;;;;;;;;;;;;;;;;;;5050123;28;20293;-78
2023/09/09 07:47:58;;;;;;;;;;;;;;;;;;5042348;28;19917;-79
2023/09/09 07:50:24;;;;;;;;;;;;;;;;;;5050050;28;19978;-79
2023/09/09 07:52:49;;;;;;;;;;;;;;;;;;5032842;28;19924;-80
2023/09/09 07:55:15;;;;;;;;;;;;;;;;;;5040625;28;19917;-80
2023/09/09 07:57:40;;;;;;;;;;;;;;;;;;5050958;28;19982;-79
2023/09/09 08:00:07;;;;;;;;;;;;;;;;;;5050575;28;20023;-78
2023/09/09 08:02:32;;;;;;;;;;;;;;;;;;5020996;28;20190;-80
2023/09/09 08:04:58;;;;;;;;;;;;;;;;;;5049984;28;19927;-80
2023/09/09 08:07:23;;;;;;;;;;;;;;;;;;5050520;28;20014;-78
2023/09/09 08:09:48;;;;;;;;;;;;;;;;;;5018398;28;20177;-79
2023/09/09 08:12:13;;;;;;;;;;;;;;;;;;5030887;28;19925;-78
2023/09/09 08:14:40;;;;;;;;;;;;;;;;;;5031401;28;19928;-79
2023/09/09 08:17:05;;;;;;;;;;;;;;;;;;5029966;28;19925;-80
2023/09/09 08:19:30;;;;;;;;;;;;;;;;;;5018421;28;19920;-81
2023/09/09 08:21:56;;;;;;;;;;;;;;;;;;5035586;28;19923;-80
2023/09/09 08:24:21;;;;;;;;;;;;;;;;;;5033192;28;20706;-80
2023/09/09 08:26:47;;;;;;;;;;;;;;;;;;5018195;28;19921;-79
2023/09/09 08:29:13;;;;;;;;;;;;;;;;;;5025627;28;19922;-79
2023/09/09 08:31:38;;;;;;;;;;;;;;;;;;5032683;28;19921;-79
2023/09/09 08:34:03;;;;;;;;;;;;;;;;;;5019256;28;19960;-79
2023/09/09 08:36:28;;;;;;;;;;;;;;;;;;5053359;28;20065;-79
2023/09/09 08:38:56;;;;;;;;;;;;;;;;;;5035782;28;19967;-80
2023/09/09 08:41:56;;;;;;;;;;;;;;;;;;5025387;28;19956;-80
2023/09/09 08:44:40;;;;;;;;;;;;;;;;;;4973710;28;19921;-80
2023/09/09 08:47:09;;;;;;;;;;;;;;;;;;5010824;28;19920;-79
2023/09/09 08:49:34;;;;;;;;;;;;;;;;;;4997221;28;19917;-79
2023/09/09 08:52:03;;;;;;;;;;;;;;;;;;5038709;28;20301;-79
2023/09/09 08:54:28;;;;;;;;;;;;;;;;;;5025328;28;20276;-79
2023/09/09 08:56:54;;;;;;;;;;;;;;;;;;5006935;28;19924;-80
2023/09/09 08:59:20;;;;;;;;;;;;;;;;;;5019838;28;19921;-79
2023/09/09 09:01:46;;;;;;;;;;;;;;;;;;4996654;28;19976;-77
2023/09/09 09:04:11;;;;;;;;;;;;;;;;;;5049398;28;19921;-78
2023/09/09 09:06:36;;;;;;;;;;;;;;;;;;5043726;28;19920;-85
2023/09/09 09:09:02;;;;;;;;;;;;;;;;;;5046706;28;19925;-83
2023/09/09 09:11:27;;;;;;;;;;;;;;;;;;5015705;28;19991;-85
2023/09/09 09:13:54;;;;;;;;;;;;;;;;;;5026515;28;20292;-84
2023/09/09 09:16:19;;;;;;;;;;;;;;;;;;5017387;28;19918;-86
2023/09/09 09:18:44;;;;;;;;;;;;;;;;;;5034390;28;20461;-84
2023/09/09 09:21:10;;;;;;;;;;;;;;;;;;5028630;28;19940;-83
2023/09/09 09:23:45;;;;;;;;;;;;;;;;;;5012669;28;19932;-84
2023/09/09 09:26:26;;;;;;;;;;;;;;;;;;5049807;28;20012;-85
2023/09/09 09:28:52;;;;;;;;;;;;;;;;;;5016565;28;19921;-84
2023/09/09 09:31:21;;;;;;;;;;;;;;;;;;5021521;28;19961;-83
2023/09/09 09:33:56;;;;;;;;;;;;;;;;;;5019814;28;19932;-85
2023/09/09 09:36:21;;;;;;;;;;;;;;;;;;5038211;28;20703;-85
2023/09/09 09:38:50;;;;;;;;;;;;;;;;;;5036251;28;19921;-84
2023/09/09 09:41:19;;;;;;;;;;;;;;;;;;5047000;28;19923;-84
2023/09/09 09:43:45;;;;;;;;;;;;;;;;;;5021700;28;19922;-85
2023/09/09 09:46:20;;;;;;;;;;;;;;;;;;5047311;28;19928;-86
2023/09/09 09:48:46;;;;;;;;;;;;;;;;;;5034978;28;20324;-84
2023/09/09 09:51:11;;;;;;;;;;;;;;;;;;5006877;28;19925;-84
2023/09/09 09:53:57;;;;;;;;;;;;;;;;;;5047937;28;19957;-84
2023/09/09 09:56:22;;;;;;;;;;;;;;;;;;5021613;28;19929;-85
2023/09/09 09:58:49;;;;;;;;;;;;;;;;;;5021274;28;19917;-86
2023/09/09 10:01:14;;;;;;;;;;;;;;;;;;5049722;28;19921;-86
2023/09/09 10:03:51;;;;;;;;;;;;;;;;;;5024673;28;19925;-82
2023/09/09 10:06:18;;;;;;;;;;;;;;;;;;4999088;28;19940;-84
2023/09/09 10:08:49;;;;;;;;;;;;;;;;;;5037149;28;20396;-81
2023/09/09 10:11:17;;;;;;;;;;;;;;;;;;5036378;28;20324;-80
2023/09/09 10:13:44;;;;;;;;;;;;;;;;;;5026853;28;20011;-80
2023/09/09 10:16:09;;;;;;;;;;;;;;;;;;5009051;28;19921;-81
2023/09/09 10:18:35;;;;;;;;;;;;;;;;;;5040548;28;19975;-81
2023/09/09 10:21:00;;;;;;;;;;;;;;;;;;5021984;28;19917;-81
2023/09/09 10:23:25;;;;;;;;;;;;;;;;;;5041232;28;20016;-80
2023/09/09 10:25:51;;;;;;;;;;;;;;;;;;5053069;28;19971;-81
2023/09/09 10:28:18;;;;;;;;;;;;;;;;;;5040238;28;19924;-81
2023/09/09 10:30:43;;;;;;;;;;;;;;;;;;5021634;28;19963;-81
2023/09/09 10:33:28;;;;;;;;;;;;;;;;;;5021817;28;19920;-89
2023/09/09 10:35:53;;;;;;;;;;;;;;;;;;5005723;28;19917;-86
2023/09/09 10:38:26;;;;;;;;;;;;;;;;;;5052296;28;19928;-79
2023/09/09 10:41:09;;;;;;;;;;;;;;;;;;5010611;28;19924;-80
2023/09/09 10:43:36;;;;;;;;;;;;;;;;;;5045728;28;20383;-80
2023/09/09 10:46:02;;;;;;;;;;;;;;;;;;5052134;28;19928;-79
2023/09/09 10:48:28;;;;;;;;;;;;;;;;;;5023154;28;19916;-80
2023/09/09 10:50:53;;;;;;;;;;;;;;;;;;5013814;28;19986;-80
2023/09/09 10:53:22;;;;;;;;;;;;;;;;;;5022137;28;19921;-80
2023/09/09 10:55:47;;;;;;;;;;;;;;;;;;5018848;28;20393;-80
2023/09/09 10:58:16;;;;;;;;;;;;;;;;;;5021628;28;19928;-81
2023/09/09 11:00:42;;;;;;;;;;;;;;;;;;5020948;28;19956;-80
2023/09/09 11:03:11;;;;;;;;;;;;;;;;;;5038468;28;19956;-81
2023/09/09 11:06:15;;;;;;;;;;;;;;;;;;4995677;28;20361;-81
2023/09/09 11:08:43;;;;;;;;;;;;;;;;;;4956738;28;20647;-80
2023/09/09 11:11:10;;;;;;;;;;;;;;;;;;4981240;28;20386;-80
2023/09/09 11:13:43;;;;;;;;;;;;;;;;;;4957664;28;19922;-81
2023/09/09 11:16:22;;;;;;;;;;;;;;;;;;4993763;28;19960;-81
2023/09/09 11:18:51;;;;;;;;;;;;;;;;;;4981071;28;20012;-80
2023/09/09 11:21:16;;;;;;;;;;;;;;;;;;4994433;28;20302;-81
2023/09/09 11:23:42;;;;;;;;;;;;;;;;;;4984770;28;19926;-81
2023/09/09 11:26:07;;;;;;;;;;;;;;;;;;4994413;28;19921;-80
2023/09/09 11:28:38;;;;;;;;;;;;;;;;;;4971674;28;19924;-81
2023/09/09 11:31:10;;;;;;;;;;;;;;;;;;4982265;28;19922;-80
2023/09/09 11:33:44;;;;;;;;;;;;;;;;;;4996710;28;19922;-80
2023/09/09 11:36:10;;;;;;;;;;;;;;;;;;4981401;28;19998;-81
2023/09/09 11:38:35;;;;;;;;;;;;;;;;;;4967941;28;19928;-81
2023/09/09 11:41:01;;;;;;;;;;;;;;;;;;5018493;28;19982;-81
2023/09/09 11:43:26;;;;;;;;;;;;;;;;;;5025001;28;19932;-81
2023/09/09 11:45:54;;;;;;;;;;;;;;;;;;5011937;28;19945;-81
2023/09/09 11:48:20;;;;;;;;;;;;;;;;;;5016967;28;20359;-82
2023/09/09 11:50:46;;;;;;;;;;;;;;;;;;5033912;28;20012;-81
2023/09/09 11:53:12;;;;;;;;;;;;;;;;;;5035187;28;19975;-81
2023/09/09 11:55:37;;;;;;;;;;;;;;;;;;5052852;28;19917;-81
2023/09/09 11:58:03;;;;;;;;;;;;;;;;;;5054335;28;20430;-81
2023/09/09 12:00:28;;;;;;;;;;;;;;;;;;5048891;28;19918;-80
2023/09/09 12:02:53;;;;;;;;;;;;;;;;;;5053104;28;19925;-81
2023/09/09 12:05:18;;;;;;;;;;;;;;;;;;5022391;28;19922;-81
2023/09/09 12:07:44;;;;;;;;;;;;;;;;;;5037036;28;19931;-80
2023/09/09 12:10:14;;;;;;;;;;;;;;;;;;5051152;28;20385;-80
2023/09/09 12:12:47;;;;;;;;;;;;;;;;;;5049427;28;20446;-80
2023/09/09 12:15:15;;;;;;;;;;;;;;;;;;5036106;28;19921;-79
2023/09/09 12:17:40;;;;;;;;;;;;;;;;;;5004085;28;20423;-80
2023/09/09 12:20:08;;;;;;;;;;;;;;;;;;5024838;28;19921;-80
2023/09/09 12:22:35;;;;;;;;;;;;;;;;;;5012155;28;19932;-80
2023/09/09 12:25:01;;;;;;;;;;;;;;;;;;5044703;28;19932;-81
2023/09/09 12:27:42;;;;;;;;;;;;;;;;;;5036956;28;19921;-80
2023/09/09 12:30:12;;;;;;;;;;;;;;;;;;5022670;28;19956;-82
2023/09/09 12:32:37;;;;;;;;;;;;;;;;;;5053611;28;20361;-82
2023/09/09 12:35:03;;;;;;;;;;;;;;;;;;5029783;28;19928;-80
2023/09/09 12:37:28;;;;;;;;;;;;;;;;;;5032514;28;19959;-81
2023/09/09 12:40:00;;;;;;;;;;;;;;;;;;5017120;28;19927;-81
2023/09/09 12:42:25;;;;;;;;;;;;;;;;;;5022120;28;19921;-80
2023/09/09 12:44:51;;;;;;;;;;;;;;;;;;5029296;28;19925;-80
2023/09/09 12:47:20;;;;;;;;;;;;;;;;;;5006322;28;20297;-81
2023/09/09 12:49:47;;;;;;;;;;;;;;;;;;5038500;28;19921;-81
2023/09/09 12:52:13;;;;;;;;;;;;;;;;;;5041558;28;19928;-80
2023/09/09 12:54:41;;;;;;;;;;;;;;;;;;5023578;28;20120;-81
2023/09/09 12:57:06;;;;;;;;;;;;;;;;;;5035392;28;19984;-81
2023/09/09 12:59:32;;;;;;;;;;;;;;;;;;5017288;28;19925;-81
2023/09/09 13:01:57;;;;;;;;;;;;;;;;;;5029579;28;19925;-81
2023/09/09 13:04:23;;;;;;;;;;;;;;;;;;5018800;28;20016;-81
2023/09/09 13:06:48;;;;;;;;;;;;;;;;;;5018067;28;20304;-81
2023/09/09 13:09:13;;;;;;;;;;;;;;;;;;5028854;28;19925;-81
2023/09/09 13:11:39;;;;;;;;;;;;;;;;;;5028607;28;19975;-80
2023/09/09 13:14:06;;;;;;;;;;;;;;;;;;5048441;28;20421;-81
2023/09/09 13:16:31;;;;;;;;;;;;;;;;;;5020348;28;20351;-80
2023/09/09 13:18:56;;;;;;;;;;;;;;;;;;5037741;28;20313;-81
2023/09/09 13:21:22;;;;;;;;;;;;;;;;;;5019857;28;20304;-81
2023/09/09 13:23:47;;;;;;;;;;;;;;;;;;5049767;28;20362;-81
2023/09/09 13:26:12;;;;;;;;;;;;;;;;;;5046567;28;19925;-80
2023/09/09 13:28:37;;;;;;;;;;;;;;;;;;5020568;28;20390;-81
2023/09/09 13:31:03;;;;;;;;;;;;;;;;;;5050839;28;19921;-81
2023/09/09 13:33:28;;;;;;;;;;;;;;;;;;5015975;28;19971;-80
2023/09/09 13:35:53;;;;;;;;;;;;;;;;;;5022967;28;20243;-81
2023/09/09 13:38:22;;;;;;;;;;;;;;;;;;5017792;28;19972;-80
2023/09/09 13:40:50;;;;;;;;;;;;;;;;;;5016775;28;19918;-80
2023/09/09 13:43:17;;;;;;;;;;;;;;;;;;5020264;28;19922;-80
2023/09/09 13:45:43;;;;;;;;;;;;;;;;;;5011607;28;19983;-80
2023/09/09 13:48:11;;;;;;;;;;;;;;;;;;5037099;28;20316;-82
2023/09/09 13:50:36;;;;;;;;;;;;;;;;;;5004019;28;19921;-81
2023/09/09 13:53:03;;;;;;;;;;;;;;;;;;5038449;28;19922;-81
2023/09/09 13:55:28;;;;;;;;;;;;;;;;;;5039574;28;19927;-81
2023/09/09 13:57:53;;;;;;;;;;;;;;;;;;5038164;28;20651;-81
2023/09/09 14:00:18;;;;;;;;;;;;;;;;;;5030273;28;20374;-82
2023/09/09 14:02:44;;;;;;;;;;;;;;;;;;5035601;28;19928;-81
2023/09/09 14:05:09;;;;;;;;;;;;;;;;;;5035530;28;19922;-81
2023/09/09 14:07:34;;;;;;;;;;;;;;;;;;5046139;28;20392;-81
2023/09/09 14:10:00;;;;;;;;;;;;;;;;;;5036431;28;19929;-81
2023/09/09 14:12:25;;;;;;;;;;;;;;;;;;5024170;28;20415;-80
2023/09/09 14:14:50;;;;;;;;;;;;;;;;;;5009874;28;20373;-81
2023/09/09 14:17:16;;;;;;;;;;;;;;;;;;5022130;28;19928;-81
2023/09/09 14:19:41;;;;;;;;;;;;;;;;;;5020054;28;20655;-81
2023/09/09 14:22:07;;;;;;;;;;;;;;;;;;4998624;28;20372;-81
2023/09/09 14:24:32;;;;;;;;;;;;;;;;;;5037915;28;20426;-81
2023/09/09 14:26:57;;;;;;;;;;;;;;;;;;5013091;28;20281;-81
2023/09/09 14:29:22;;;;;;;;;;;;;;;;;;5024153;28;19925;-81
2023/09/09 14:31:50;;;;;;;;;;;;;;;;;;4995138;28;19955;-81
2023/09/09 14:34:15;;;;;;;;;;;;;;;;;;5033538;28;20295;-81
2023/09/09 14:36:41;;;;;;;;;;;;;;;;;;5036637;28;19996;-80
2023/09/09 14:39:06;;;;;;;;;;;;;;;;;;5018463;28;19921;-82
2023/09/09 14:41:31;;;;;;;;;;;;;;;;;;5049607;28;19917;-81
2023/09/09 14:43:56;;;;;;;;;;;;;;;;;;5041428;28;19925;-81
2023/09/09 14:46:27;;;;;;;;;;;;;;;;;;5023028;28;19921;-81
2023/09/09 14:48:56;;;;;;;;;;;;;;;;;;5043857;28;19928;-81
2023/09/09 14:51:21;;;;;;;;;;;;;;;;;;5014239;28;20028;-82
2023/09/09 14:53:47;;;;;;;;;;;;;;;;;;5061082;28;20029;-81
2023/09/09 14:56:25;;;;;;;;;;;;;;;;;;;;;
2023/09/09 14:58:53;;;;;;;;;;;;;;;;;;5054434;28;19921;-82
2023/09/09 15:01:19;;;;;;;;;;;;;;;;;;5026172;28;19919;-81
2023/09/09 15:03:44;;;;;;;;;;;;;;;;;;5028460;28;19928;-81
2023/09/09 15:06:09;;;;;;;;;;;;;;;;;;5015245;28;19916;-82
2023/09/09 15:08:35;;;;;;;;;;;;;;;;;;5005571;28;19925;-81
2023/09/09 15:11:00;;;;;;;;;;;;;;;;;;5024766;28;19921;-81
2023/09/09 15:13:25;;;;;;;;;;;;;;;;;;5027837;28;19943;-81
2023/09/09 15:15:51;;;;;;;;;;;;;;;;;;5020636;28;19928;-81
2023/09/09 15:18:16;;;;;;;;;;;;;;;;;;5034937;28;20285;-84
2023/09/09 15:20:42;;;;;;;;;;;;;;;;;;5036834;28;20398;-80
2023/09/09 15:23:14;;;;;;;;;;;;;;;;;;5022528;28;19933;-80
2023/09/09 15:25:42;;;;;;;;;;;;;;;;;;5019174;28;20446;-80
2023/09/09 15:28:18;;;;;;;;;;;;;;;;;;5007401;28;20007;-80
2023/09/09 15:30:46;;;;;;;;;;;;;;;;;;5028793;28;20467;-80
2023/09/09 15:33:12;;;;;;;;;;;;;;;;;;5034990;28;19940;-81
2023/09/09 15:35:37;;;;;;;;;;;;;;;;;;5010059;28;19925;-80
2023/09/09 15:38:02;;;;;;;;;;;;;;;;;;5026133;28;19956;-81
2023/09/09 15:40:28;;;;;;;;;;;;;;;;;;5004282;28;19922;-80
2023/09/09 15:42:53;;;;;;;;;;;;;;;;;;5032293;28;19928;-80
2023/09/09 15:45:18;;;;;;;;;;;;;;;;;;5040278;28;19920;-80
2023/09/09 15:47:44;;;;;;;;;;;;;;;;;;5061567;28;19956;-80
2023/09/09 15:50:09;;;;;;;;;;;;;;;;;;5022979;28;19967;-80
2023/09/09 15:52:34;;;;;;;;;;;;;;;;;;5056432;28;19921;-80
2023/09/09 15:55:00;;;;;;;;;;;;;;;;;;5047237;28;19918;-80
2023/09/09 15:57:25;;;;;;;;;;;;;;;;;;5039717;28;19970;-80
2023/09/09 15:59:50;;;;;;;;;;;;;;;;;;5020503;28;20289;-80
2023/09/09 16:02:16;;;;;;;;;;;;;;;;;;5031245;28;19959;-80
2023/09/09 16:04:41;;;;;;;;;;;;;;;;;;5045872;28;19921;-80
2023/09/09 16:07:17;;;;;;;;;;;;;;;;;;5056514;28;19921;-80
2023/09/09 16:09:42;;;;;;;;;;;;;;;;;;5023559;28;19975;-80
2023/09/09 16:12:10;;;;;;;;;;;;;;;;;;5017502;28;20381;-80
2023/09/09 16:14:54;;;;;;;;;;;;;;;;;;5022849;28;19979;-80
2023/09/09 16:17:21;;;;;;;;;;;;;;;;;;5020729;28;20358;-80
2023/09/09 16:19:47;;;;;;;;;;;;;;;;;;5031172;28;19921;-80
2023/09/09 16:22:15;;;;;;;;;;;;;;;;;;5030156;28;19917;-80
2023/09/09 16:24:40;;;;;;;;;;;;;;;;;;5015272;28;19925;-81
2023/09/09 16:27:13;;;;;;;;;;;;;;;;;;5046305;28;19979;-80
2023/09/09 16:29:41;;;;;;;;;;;;;;;;;;5027907;28;20374;-80
2023/09/09 16:32:09;;;;;;;;;;;;;;;;;;5016302;28;19957;-81
2023/09/09 16:34:34;;;;;;;;;;;;;;;;;;5024227;28;20352;-81
2023/09/09 16:37:02;;;;;;;;;;;;;;;;;;5002448;28;19921;-80
2023/09/09 16:39:28;;;;;;;;;;;;;;;;;;5037349;28;19921;-80
2023/09/09 16:41:53;;;;;;;;;;;;;;;;;;5055001;28;20011;-80